Thursday, October 30, 2014, 1:28 PM EDT

KMDT, Harrisburg International Airport

Location: Middletown, PA, United States Lat: 40.2
Local Time: 1:28 PM EDT (17:28 GMT) Lon: -76.767
Time Zone: US/Eastern Elev: 308 ft

Show me the last for .
Show Decoded

2014-10-30 12:56 METAR KMDT 301656Z 29011KT 10SM BKN040 13/04 A3003 =
2014-10-30 11:56 METAR KMDT 301556Z 35008KT 10SM FEW034 12/03 A3005 RMK AO2 SLP176 T01220033 =
2014-10-30 10:56 METAR KMDT 301456Z 33011KT 10SM FEW033 SCT042 SCT050 12/04 A3005 RMK AO2 SLP178
                 T01170044 50007 =
2014-10-30 09:56 METAR KMDT 301356Z 30009KT 10SM CLR 10/04 A3005 RMK AO2 SLP178 T01000044 =
2014-10-30 08:56 METAR KMDT 301256Z 30006KT 10SM SCT055 08/04 A3005 RMK AO2 SLP177 T00830044 =
2014-10-30 07:56 METAR KMDT 301156Z 32007KT 10SM CLR 06/03 A3003 RMK AO2 SLP172 70009 T00560028
                 10072 20056 51015 =
2014-10-30 06:56 METAR KMDT 301056Z 32006KT 10SM CLR 06/04 A3002 =
2014-10-30 05:56 METAR KMDT 300956Z 31007KT 10SM FEW075 06/04 A3001 =
2014-10-30 04:56 METAR KMDT 300856Z 34004KT 10SM FEW001 BKN070 06/06 A2999 RMK AO2 SLP157
                 T00610056 53002 $ =
2014-10-30 04:45 METAR KMDT 300845Z 34004KT 10SM FEW001 BKN070 06/06 A2999 RMK AO2 T00560056 $ =
2014-10-30 03:56 METAR KMDT 300756Z 00000KT 1/4SM R13/1600V2000FT FG VV002 07/07 A2998 RMK AO2
                 SLP153 T00720067 $ =
2014-10-30 02:56 METAR KMDT 300656Z 00000KT 1/8SM R13/1400V1600FT FG VV003 07/07 A2998 =
2014-10-30 02:47 METAR KMDT 300647Z 00000KT 1/8SM R13/1400V1800FT FG VV003 07/06 A2998 RMK AO2
                 T00670061 $ =
2014-10-30 02:16 METAR KMDT 300616Z 00000KT 1/8SM R13/1400V2400FT FG VV003 07/06 A2998 RMK AO2
                 T00670061 $ =
2014-10-30 01:56 METAR KMDT 300556Z 00000KT 1/8SM R13/1200V1800FT FG VV002 07/07 A2998 RMK AO2
                 SLP154 T00720072 10122 20067 53002 $ =
2014-10-30 01:46 METAR KMDT 300546Z 00000KT 1/4SM R13/1000V1200FT FG VV002 07/07 A2998 RMK AO2
                 T00720072 $ =
2014-10-30 01:34 METAR KMDT 300534Z 00000KT 1/4SM R13/1000V1200FT FG VV003 08/08 A2998 RMK AO2
                 T00780078 $ =
2014-10-30 01:22 METAR KMDT 300522Z 00000KT 1/4SM R13/1400V2400FT FG VV003 07/06 A2998 RMK AO2
                 T00670061 $ =
2014-10-30 00:56 METAR KMDT 300456Z 00000KT 1/4SM R13/1400V2800FT FG VV002 08/08 A2997 RMK AO2
                 SLP151 T00830083 401940078 $ =
2014-10-30 00:44 METAR KMDT 300444Z 00000KT 1/4SM R13/1400V5000FT FG VV002 08/08 A2998 RMK AO2
                 T00830078 $ =
2014-10-30 00:38 METAR KMDT 300438Z 33003KT 1SM R13/2200VP6000FT BR VV002 08/07 A2998 =
2014-10-30 00:33 METAR KMDT 300433Z 33003KT 2SM BR SCT004 08/07 A2998 RMK AO2 T00780072 $ =
2014-10-30 00:17 METAR KMDT 300417Z 00000KT 1 3/4SM R13/4000VP6000FT BR CLR 08/07 A2998 RMK AO2
                 T00780072 $ =
2014-10-29 23:56 METAR KMDT 300356Z 00000KT 5SM BR FEW070 08/08 A2997 =
2014-10-29 22:56 METAR KMDT 300256Z 00000KT 5SM BR BKN075 10/09 A2998 RMK AO2 SLP152 T01000094
                 50004 $ =
2014-10-29 21:56 METAR KMDT 300156Z 24003KT 9SM BKN070 12/11 A2998 =
2014-10-29 20:56 METAR KMDT 300056Z 15004KT 9SM BKN070 BKN250 11/10 A2997 RMK AO2 SLP149
                 T01110100 =
2014-10-29 19:56 METAR KMDT 292356Z 00000KT 9SM SCT060 SCT250 11/09 A2996 =
2014-10-29 18:56 METAR KMDT 292256Z 00000KT 10SM FEW012 FEW060 SCT100 SCT250 11/10 A2995 RMK AO2
                 SLP141 T01110100 =
2014-10-29 17:56 METAR KMDT 292156Z 21003KT 10SM FEW012 FEW070 SCT100 BKN250 13/11 A2992 =
2014-10-29 16:56 METAR KMDT 292056Z 00000KT 10SM FEW075 SCT100 BKN220 13/10 A2992 =
2014-10-29 15:56 METAR KMDT 291956Z 00000KT 10SM SCT075 BKN100 OVC200 13/10 A2991 RMK AO2
                 RAE02B44E51 SLP130 P0000 T01280100 =
2014-10-29 14:56 METAR KMDT 291856Z 00000KT 9SM -RA BKN065 OVC100 12/10 A2992 =
2014-10-29 13:56 METAR KMDT 291756Z 27003KT 4SM -RA BR SCT065 OVC090 13/11 A2994 RMK AO2 SLP138
                 P0004 60007 T01280106 10156 20128 58010 =

Support USWX by starting your Amazon purchase here.